sensor_id;sensor_type;location;lat;lon;timestamp;P1;durP1;ratioP1;P2;durP2;ratioP2
23290;SDS011;11814;44.686;10.842;2023-08-06T00:00:58;1.65;;;0.35;;
23290;SDS011;11814;44.686;10.842;2023-08-06T00:03:24;3.95;;;0.50;;
23290;SDS011;11814;44.686;10.842;2023-08-06T00:05:53;0.75;;;0.50;;
23290;SDS011;11814;44.686;10.842;2023-08-06T00:08:18;2.47;;;0.40;;
23290;SDS011;11814;44.686;10.842;2023-08-06T00:10:48;1.35;;;0.57;;
23290;SDS011;11814;44.686;10.842;2023-08-06T00:13:14;3.33;;;0.40;;
23290;SDS011;11814;44.686;10.842;2023-08-06T00:15:46;1.67;;;0.50;;
23290;SDS011;11814;44.686;10.842;2023-08-06T00:18:14;1.58;;;0.45;;
23290;SDS011;11814;44.686;10.842;2023-08-06T00:20:43;3.15;;;0.40;;
23290;SDS011;11814;44.686;10.842;2023-08-06T00:23:08;1.30;;;0.40;;
23290;SDS011;11814;44.686;10.842;2023-08-06T00:25:34;1.17;;;0.43;;
23290;SDS011;11814;44.686;10.842;2023-08-06T00:28:00;2.58;;;0.70;;
23290;SDS011;11814;44.686;10.842;2023-08-06T00:30:25;0.63;;;0.40;;
23290;SDS011;11814;44.686;10.842;2023-08-06T00:32:51;1.15;;;0.60;;
23290;SDS011;11814;44.686;10.842;2023-08-06T00:35:20;2.08;;;0.60;;
23290;SDS011;11814;44.686;10.842;2023-08-06T00:37:46;2.38;;;0.50;;
23290;SDS011;11814;44.686;10.842;2023-08-06T00:40:12;3.30;;;0.63;;
23290;SDS011;11814;44.686;10.842;2023-08-06T00:42:46;4.68;;;1.00;;
23290;SDS011;11814;44.686;10.842;2023-08-06T00:45:20;1.75;;;0.50;;
23290;SDS011;11814;44.686;10.842;2023-08-06T00:47:48;2.05;;;0.57;;
23290;SDS011;11814;44.686;10.842;2023-08-06T00:50:14;4.80;;;0.70;;
23290;SDS011;11814;44.686;10.842;2023-08-06T00:52:47;1.73;;;0.40;;
23290;SDS011;11814;44.686;10.842;2023-08-06T00:55:15;2.30;;;0.43;;
23290;SDS011;11814;44.686;10.842;2023-08-06T00:57:46;2.65;;;0.55;;
23290;SDS011;11814;44.686;10.842;2023-08-06T01:00:13;7.55;;;0.70;;
23290;SDS011;11814;44.686;10.842;2023-08-06T01:02:44;1.75;;;0.30;;
23290;SDS011;11814;44.686;10.842;2023-08-06T01:05:13;2.05;;;0.30;;
23290;SDS011;11814;44.686;10.842;2023-08-06T01:13:52;4.18;;;0.70;;
23290;SDS011;11814;44.686;10.842;2023-08-06T01:16:24;1.63;;;0.57;;
23290;SDS011;11814;44.686;10.842;2023-08-06T01:18:50;1.10;;;0.47;;
23290;SDS011;11814;44.686;10.842;2023-08-06T01:21:16;5.05;;;0.68;;
23290;SDS011;11814;44.686;10.842;2023-08-06T01:23:45;2.70;;;0.77;;
23290;SDS011;11814;44.686;10.842;2023-08-06T01:26:28;2.45;;;0.30;;
23290;SDS011;11814;44.686;10.842;2023-08-06T01:29:17;1.55;;;0.50;;
23290;SDS011;11814;44.686;10.842;2023-08-06T01:31:57;1.83;;;0.70;;
23290;SDS011;11814;44.686;10.842;2023-08-06T01:34:24;1.15;;;0.50;;
23290;SDS011;11814;44.686;10.842;2023-08-06T01:36:52;2.67;;;0.55;;
23290;SDS011;11814;44.686;10.842;2023-08-06T01:39:18;5.15;;;0.50;;
23290;SDS011;11814;44.686;10.842;2023-08-06T01:41:50;4.68;;;0.98;;
23290;SDS011;11814;44.686;10.842;2023-08-06T01:44:18;3.10;;;0.60;;
23290;SDS011;11814;44.686;10.842;2023-08-06T01:46:44;4.60;;;0.73;;
23290;SDS011;11814;44.686;10.842;2023-08-06T01:49:10;4.72;;;0.63;;
23290;SDS011;11814;44.686;10.842;2023-08-06T01:51:35;1.05;;;0.35;;
23290;SDS011;11814;44.686;10.842;2023-08-06T01:54:04;5.25;;;0.47;;
23290;SDS011;11814;44.686;10.842;2023-08-06T01:56:32;2.30;;;0.55;;
23290;SDS011;11814;44.686;10.842;2023-08-06T01:59:01;1.65;;;0.55;;
23290;SDS011;11814;44.686;10.842;2023-08-06T02:01:47;2.25;;;0.52;;
23290;SDS011;11814;44.686;10.842;2023-08-06T02:04:16;3.85;;;0.50;;
23290;SDS011;11814;44.686;10.842;2023-08-06T02:06:41;2.17;;;0.65;;
23290;SDS011;11814;44.686;10.842;2023-08-06T02:09:10;4.07;;;0.85;;
23290;SDS011;11814;44.686;10.842;2023-08-06T02:11:44;1.73;;;0.60;;
23290;SDS011;11814;44.686;10.842;2023-08-06T02:14:12;3.28;;;0.50;;
23290;SDS011;11814;44.686;10.842;2023-08-06T02:16:38;3.58;;;0.60;;
23290;SDS011;11814;44.686;10.842;2023-08-06T02:19:07;5.47;;;0.90;;
23290;SDS011;11814;44.686;10.842;2023-08-06T02:21:32;3.65;;;0.70;;
23290;SDS011;11814;44.686;10.842;2023-08-06T02:24:01;3.28;;;0.80;;
23290;SDS011;11814;44.686;10.842;2023-08-06T02:26:30;2.55;;;0.95;;
23290;SDS011;11814;44.686;10.842;2023-08-06T02:28:59;2.25;;;0.70;;
23290;SDS011;11814;44.686;10.842;2023-08-06T02:31:27;4.22;;;0.70;;
23290;SDS011;11814;44.686;10.842;2023-08-06T02:33:56;4.38;;;0.70;;
23290;SDS011;11814;44.686;10.842;2023-08-06T02:36:27;4.32;;;0.82;;
23290;SDS011;11814;44.686;10.842;2023-08-06T02:38:54;3.88;;;0.98;;
23290;SDS011;11814;44.686;10.842;2023-08-06T02:41:23;3.42;;;0.60;;
23290;SDS011;11814;44.686;10.842;2023-08-06T02:43:52;5.07;;;0.60;;
23290;SDS011;11814;44.686;10.842;2023-08-06T02:46:20;2.20;;;0.60;;
23290;SDS011;11814;44.686;10.842;2023-08-06T02:48:49;5.40;;;0.70;;
23290;SDS011;11814;44.686;10.842;2023-08-06T02:51:18;1.50;;;0.60;;
23290;SDS011;11814;44.686;10.842;2023-08-06T02:53:44;2.08;;;0.50;;
23290;SDS011;11814;44.686;10.842;2023-08-06T02:56:13;4.05;;;0.55;;
23290;SDS011;11814;44.686;10.842;2023-08-06T02:58:39;3.65;;;0.60;;
23290;SDS011;11814;44.686;10.842;2023-08-06T03:01:07;7.85;;;0.68;;
23290;SDS011;11814;44.686;10.842;2023-08-06T03:03:36;2.85;;;0.65;;
23290;SDS011;11814;44.686;10.842;2023-08-06T03:06:10;3.65;;;0.77;;
23290;SDS011;11814;44.686;10.842;2023-08-06T03:08:36;2.97;;;0.80;;
23290;SDS011;11814;44.686;10.842;2023-08-06T03:11:02;5.43;;;1.13;;
23290;SDS011;11814;44.686;10.842;2023-08-06T03:13:27;2.40;;;0.65;;
23290;SDS011;11814;44.686;10.842;2023-08-06T03:15:54;3.17;;;0.50;;
23290;SDS011;11814;44.686;10.842;2023-08-06T03:18:27;2.10;;;0.50;;
23290;SDS011;11814;44.686;10.842;2023-08-06T03:20:55;2.80;;;0.60;;
23290;SDS011;11814;44.686;10.842;2023-08-06T03:23:24;2.20;;;0.60;;
23290;SDS011;11814;44.686;10.842;2023-08-06T03:25:53;3.25;;;0.63;;
23290;SDS011;11814;44.686;10.842;2023-08-06T03:28:20;1.38;;;0.60;;
23290;SDS011;11814;44.686;10.842;2023-08-06T03:30:47;5.15;;;0.85;;
23290;SDS011;11814;44.686;10.842;2023-08-06T03:33:16;2.95;;;0.50;;
23290;SDS011;11814;44.686;10.842;2023-08-06T03:35:41;2.97;;;0.50;;
23290;SDS011;11814;44.686;10.842;2023-08-06T03:38:07;4.90;;;0.80;;
23290;SDS011;11814;44.686;10.842;2023-08-06T03:40:36;8.98;;;0.70;;
23290;SDS011;11814;44.686;10.842;2023-08-06T03:43:01;4.18;;;0.77;;
23290;SDS011;11814;44.686;10.842;2023-08-06T03:45:27;4.72;;;0.40;;
23290;SDS011;11814;44.686;10.842;2023-08-06T03:47:56;3.22;;;0.70;;
23290;SDS011;11814;44.686;10.842;2023-08-06T03:50:27;1.50;;;0.40;;
23290;SDS011;11814;44.686;10.842;2023-08-06T03:52:56;3.20;;;0.50;;
23290;SDS011;11814;44.686;10.842;2023-08-06T03:55:28;1.10;;;0.50;;
23290;SDS011;11814;44.686;10.842;2023-08-06T03:57:59;1.08;;;0.47;;
23290;SDS011;11814;44.686;10.842;2023-08-06T04:00:25;6.43;;;0.70;;
23290;SDS011;11814;44.686;10.842;2023-08-06T04:02:51;5.53;;;0.80;;
23290;SDS011;11814;44.686;10.842;2023-08-06T04:05:16;3.10;;;0.60;;
23290;SDS011;11814;44.686;10.842;2023-08-06T04:07:48;3.88;;;0.82;;
23290;SDS011;11814;44.686;10.842;2023-08-06T04:10:13;5.35;;;0.80;;
23290;SDS011;11814;44.686;10.842;2023-08-06T04:12:46;4.20;;;0.70;;
23290;SDS011;11814;44.686;10.842;2023-08-06T04:15:15;3.00;;;0.65;;
23290;SDS011;11814;44.686;10.842;2023-08-06T04:17:43;4.55;;;0.68;;
23290;SDS011;11814;44.686;10.842;2023-08-06T04:20:11;7.35;;;0.60;;
23290;SDS011;11814;44.686;10.842;2023-08-06T04:22:40;3.63;;;0.60;;
23290;SDS011;11814;44.686;10.842;2023-08-06T04:25:06;1.27;;;0.63;;
23290;SDS011;11814;44.686;10.842;2023-08-06T04:27:34;1.13;;;0.70;;
23290;SDS011;11814;44.686;10.842;2023-08-06T04:30:02;2.70;;;0.50;;
23290;SDS011;11814;44.686;10.842;2023-08-06T04:32:27;2.20;;;0.70;;
23290;SDS011;11814;44.686;10.842;2023-08-06T04:34:56;3.33;;;0.70;;
23290;SDS011;11814;44.686;10.842;2023-08-06T04:37:25;3.38;;;0.88;;
23290;SDS011;11814;44.686;10.842;2023-08-06T04:39:59;4.65;;;0.90;;
23290;SDS011;11814;44.686;10.842;2023-08-06T04:42:25;3.88;;;0.77;;
23290;SDS011;11814;44.686;10.842;2023-08-06T04:45:01;2.47;;;0.82;;
23290;SDS011;11814;44.686;10.842;2023-08-06T04:47:33;3.95;;;1.08;;
23290;SDS011;11814;44.686;10.842;2023-08-06T04:50:01;2.28;;;1.23;;
23290;SDS011;11814;44.686;10.842;2023-08-06T04:52:30;3.55;;;1.30;;
23290;SDS011;11814;44.686;10.842;2023-08-06T04:55:05;2.92;;;1.23;;
23290;SDS011;11814;44.686;10.842;2023-08-06T04:57:39;3.00;;;1.08;;
23290;SDS011;11814;44.686;10.842;2023-08-06T05:00:05;5.00;;;1.40;;
23290;SDS011;11814;44.686;10.842;2023-08-06T05:02:34;2.58;;;1.20;;
23290;SDS011;11814;44.686;10.842;2023-08-06T05:05:03;2.38;;;1.27;;
23290;SDS011;11814;44.686;10.842;2023-08-06T05:07:28;5.80;;;1.38;;
23290;SDS011;11814;44.686;10.842;2023-08-06T05:09:54;2.42;;;1.38;;
23290;SDS011;11814;44.686;10.842;2023-08-06T05:12:46;2.35;;;1.10;;
23290;SDS011;11814;44.686;10.842;2023-08-06T05:15:11;2.88;;;1.20;;
23290;SDS011;11814;44.686;10.842;2023-08-06T05:17:37;2.13;;;1.13;;
23290;SDS011;11814;44.686;10.842;2023-08-06T05:20:06;1.90;;;1.35;;
23290;SDS011;11814;44.686;10.842;2023-08-06T05:22:34;3.90;;;1.20;;
23290;SDS011;11814;44.686;10.842;2023-08-06T05:25:00;4.18;;;1.70;;
23290;SDS011;11814;44.686;10.842;2023-08-06T05:27:25;4.10;;;1.60;;
23290;SDS011;11814;44.686;10.842;2023-08-06T05:29:55;3.38;;;1.35;;
23290;SDS011;11814;44.686;10.842;2023-08-06T05:32:23;4.63;;;1.52;;
23290;SDS011;11814;44.686;10.842;2023-08-06T05:34:52;4.60;;;1.40;;
23290;SDS011;11814;44.686;10.842;2023-08-06T05:37:43;3.63;;;1.40;;
23290;SDS011;11814;44.686;10.842;2023-08-06T05:40:16;2.17;;;1.08;;
23290;SDS011;11814;44.686;10.842;2023-08-06T05:42:45;4.03;;;1.23;;
23290;SDS011;11814;44.686;10.842;2023-08-06T05:45:16;1.88;;;0.88;;
23290;SDS011;11814;44.686;10.842;2023-08-06T05:47:45;2.45;;;1.08;;
23290;SDS011;11814;44.686;10.842;2023-08-06T05:50:14;6.22;;;1.35;;
23290;SDS011;11814;44.686;10.842;2023-08-06T05:52:39;3.42;;;1.40;;
23290;SDS011;11814;44.686;10.842;2023-08-06T05:55:11;1.92;;;1.00;;
23290;SDS011;11814;44.686;10.842;2023-08-06T05:57:37;2.28;;;1.10;;
23290;SDS011;11814;44.686;10.842;2023-08-06T06:00:02;2.50;;;1.15;;
23290;SDS011;11814;44.686;10.842;2023-08-06T06:02:31;3.10;;;1.55;;
23290;SDS011;11814;44.686;10.842;2023-08-06T06:04:56;3.92;;;1.80;;
23290;SDS011;11814;44.686;10.842;2023-08-06T06:07:28;2.78;;;1.58;;
23290;SDS011;11814;44.686;10.842;2023-08-06T06:10:02;3.85;;;1.73;;
23290;SDS011;11814;44.686;10.842;2023-08-06T06:12:28;4.50;;;1.90;;
23290;SDS011;11814;44.686;10.842;2023-08-06T06:15:03;2.63;;;1.50;;
23290;SDS011;11814;44.686;10.842;2023-08-06T06:17:35;7.05;;;1.63;;
23290;SDS011;11814;44.686;10.842;2023-08-06T06:20:01;3.97;;;1.30;;
23290;SDS011;11814;44.686;10.842;2023-08-06T06:22:29;2.47;;;1.35;;
23290;SDS011;11814;44.686;10.842;2023-08-06T06:24:55;2.35;;;1.25;;
23290;SDS011;11814;44.686;10.842;2023-08-06T06:27:20;2.42;;;1.50;;
23290;SDS011;11814;44.686;10.842;2023-08-06T06:29:46;5.93;;;1.65;;
23290;SDS011;11814;44.686;10.842;2023-08-06T06:32:12;6.25;;;1.77;;
23290;SDS011;11814;44.686;10.842;2023-08-06T06:34:37;3.10;;;1.42;;
23290;SDS011;11814;44.686;10.842;2023-08-06T06:37:03;2.58;;;1.52;;
23290;SDS011;11814;44.686;10.842;2023-08-06T06:39:29;3.67;;;1.42;;
23290;SDS011;11814;44.686;10.842;2023-08-06T06:41:55;1.75;;;1.20;;
23290;SDS011;11814;44.686;10.842;2023-08-06T06:44:20;7.22;;;3.63;;
23290;SDS011;11814;44.686;10.842;2023-08-06T06:46:46;5.13;;;2.33;;
23290;SDS011;11814;44.686;10.842;2023-08-06T06:49:12;3.78;;;1.20;;
23290;SDS011;11814;44.686;10.842;2023-08-06T06:51:38;1.33;;;1.10;;
23290;SDS011;11814;44.686;10.842;2023-08-06T06:54:03;4.25;;;2.10;;
23290;SDS011;11814;44.686;10.842;2023-08-06T06:56:29;3.13;;;1.63;;
23290;SDS011;11814;44.686;10.842;2023-08-06T06:58:55;3.80;;;2.08;;
23290;SDS011;11814;44.686;10.842;2023-08-06T07:01:23;6.03;;;3.55;;
23290;SDS011;11814;44.686;10.842;2023-08-06T07:03:49;3.20;;;1.52;;
23290;SDS011;11814;44.686;10.842;2023-08-06T07:06:15;3.60;;;2.08;;
23290;SDS011;11814;44.686;10.842;2023-08-06T07:08:40;2.95;;;0.85;;
23290;SDS011;11814;44.686;10.842;2023-08-06T07:11:06;3.63;;;1.05;;
23290;SDS011;11814;44.686;10.842;2023-08-06T07:13:33;3.20;;;0.85;;
23290;SDS011;11814;44.686;10.842;2023-08-06T07:15:59;3.35;;;0.90;;
23290;SDS011;11814;44.686;10.842;2023-08-06T07:18:25;2.40;;;0.73;;
23290;SDS011;11814;44.686;10.842;2023-08-06T07:20:51;4.43;;;0.80;;
23290;SDS011;11814;44.686;10.842;2023-08-06T07:23:21;1.33;;;0.70;;
23290;SDS011;11814;44.686;10.842;2023-08-06T07:25:48;1.23;;;0.65;;
23290;SDS011;11814;44.686;10.842;2023-08-06T07:28:14;1.40;;;0.57;;
23290;SDS011;11814;44.686;10.842;2023-08-06T07:30:41;1.42;;;0.75;;
23290;SDS011;11814;44.686;10.842;2023-08-06T07:33:08;1.98;;;0.50;;
23290;SDS011;11814;44.686;10.842;2023-08-06T07:35:34;0.98;;;0.47;;
23290;SDS011;11814;44.686;10.842;2023-08-06T07:38:00;3.90;;;0.60;;
23290;SDS011;11814;44.686;10.842;2023-08-06T07:40:26;2.72;;;0.60;;
23290;SDS011;11814;44.686;10.842;2023-08-06T07:42:52;2.90;;;0.63;;
23290;SDS011;11814;44.686;10.842;2023-08-06T07:45:20;5.95;;;0.63;;
23290;SDS011;11814;44.686;10.842;2023-08-06T07:47:48;3.55;;;0.60;;
23290;SDS011;11814;44.686;10.842;2023-08-06T07:50:14;3.97;;;0.77;;
23290;SDS011;11814;44.686;10.842;2023-08-06T07:52:40;1.92;;;0.60;;
23290;SDS011;11814;44.686;10.842;2023-08-06T07:55:08;2.15;;;0.63;;
23290;SDS011;11814;44.686;10.842;2023-08-06T07:57:34;2.72;;;0.60;;
23290;SDS011;11814;44.686;10.842;2023-08-06T08:00:00;2.05;;;0.60;;
23290;SDS011;11814;44.686;10.842;2023-08-06T08:02:27;3.67;;;0.80;;
23290;SDS011;11814;44.686;10.842;2023-08-06T08:04:52;2.78;;;1.10;;
23290;SDS011;11814;44.686;10.842;2023-08-06T08:07:23;3.08;;;0.77;;
23290;SDS011;11814;44.686;10.842;2023-08-06T08:09:49;2.10;;;0.63;;
23290;SDS011;11814;44.686;10.842;2023-08-06T08:12:15;3.35;;;0.98;;
23290;SDS011;11814;44.686;10.842;2023-08-06T08:14:41;5.28;;;1.23;;
23290;SDS011;11814;44.686;10.842;2023-08-06T08:17:06;4.93;;;0.80;;
23290;SDS011;11814;44.686;10.842;2023-08-06T08:19:32;2.95;;;0.82;;
23290;SDS011;11814;44.686;10.842;2023-08-06T08:21:58;4.57;;;1.30;;
23290;SDS011;11814;44.686;10.842;2023-08-06T08:24:23;3.03;;;0.80;;
23290;SDS011;11814;44.686;10.842;2023-08-06T08:26:50;6.38;;;0.80;;
23290;SDS011;11814;44.686;10.842;2023-08-06T08:29:16;5.90;;;1.02;;
23290;SDS011;11814;44.686;10.842;2023-08-06T08:31:42;5.65;;;1.13;;
23290;SDS011;11814;44.686;10.842;2023-08-06T08:34:14;4.30;;;1.35;;
23290;SDS011;11814;44.686;10.842;2023-08-06T08:36:40;5.18;;;1.20;;
23290;SDS011;11814;44.686;10.842;2023-08-06T08:39:06;3.85;;;1.40;;
23290;SDS011;11814;44.686;10.842;2023-08-06T08:41:37;4.43;;;1.38;;
23290;SDS011;11814;44.686;10.842;2023-08-06T08:44:10;4.13;;;1.00;;
23290;SDS011;11814;44.686;10.842;2023-08-06T08:46:48;8.50;;;1.25;;
23290;SDS011;11814;44.686;10.842;2023-08-06T08:49:14;3.20;;;1.08;;
23290;SDS011;11814;44.686;10.842;2023-08-06T08:51:43;4.32;;;1.20;;
23290;SDS011;11814;44.686;10.842;2023-08-06T08:54:14;5.00;;;1.00;;
23290;SDS011;11814;44.686;10.842;2023-08-06T08:56:44;5.78;;;1.20;;
23290;SDS011;11814;44.686;10.842;2023-08-06T08:59:10;5.18;;;0.93;;
23290;SDS011;11814;44.686;10.842;2023-08-06T09:01:36;3.85;;;1.02;;
23290;SDS011;11814;44.686;10.842;2023-08-06T09:04:10;4.55;;;0.82;;
23290;SDS011;11814;44.686;10.842;2023-08-06T09:06:39;3.90;;;1.00;;
23290;SDS011;11814;44.686;10.842;2023-08-06T09:09:11;3.72;;;1.05;;
23290;SDS011;11814;44.686;10.842;2023-08-06T09:11:59;3.42;;;0.85;;
23290;SDS011;11814;44.686;10.842;2023-08-06T09:14:26;3.38;;;0.95;;
23290;SDS011;11814;44.686;10.842;2023-08-06T09:16:58;6.85;;;1.33;;
23290;SDS011;11814;44.686;10.842;2023-08-06T09:19:27;3.83;;;1.10;;
23290;SDS011;11814;44.686;10.842;2023-08-06T09:21:57;6.20;;;0.90;;
23290;SDS011;11814;44.686;10.842;2023-08-06T09:24:23;4.13;;;1.10;;
23290;SDS011;11814;44.686;10.842;2023-08-06T09:26:52;5.05;;;1.10;;
23290;SDS011;11814;44.686;10.842;2023-08-06T09:29:30;3.65;;;1.08;;
23290;SDS011;11814;44.686;10.842;2023-08-06T09:31:57;5.68;;;1.15;;
23290;SDS011;11814;44.686;10.842;2023-08-06T09:34:26;6.40;;;1.20;;
23290;SDS011;11814;44.686;10.842;2023-08-06T09:37:25;3.00;;;1.00;;
23290;SDS011;11814;44.686;10.842;2023-08-06T09:40:00;3.60;;;1.02;;
23290;SDS011;11814;44.686;10.842;2023-08-06T09:42:26;7.45;;;1.35;;
23290;SDS011;11814;44.686;10.842;2023-08-06T09:44:54;4.32;;;1.25;;
23290;SDS011;11814;44.686;10.842;2023-08-06T09:47:30;5.57;;;1.00;;
23290;SDS011;11814;44.686;10.842;2023-08-06T09:49:56;4.47;;;1.20;;
23290;SDS011;11814;44.686;10.842;2023-08-06T09:52:22;5.15;;;0.90;;
23290;SDS011;11814;44.686;10.842;2023-08-06T09:54:48;5.32;;;1.13;;
23290;SDS011;11814;44.686;10.842;2023-08-06T09:57:15;5.78;;;1.48;;
23290;SDS011;11814;44.686;10.842;2023-08-06T09:59:41;5.47;;;1.10;;
23290;SDS011;11814;44.686;10.842;2023-08-06T10:02:10;3.88;;;1.05;;
23290;SDS011;11814;44.686;10.842;2023-08-06T10:04:38;2.90;;;1.10;;
23290;SDS011;11814;44.686;10.842;2023-08-06T10:07:04;6.82;;;1.10;;
23290;SDS011;11814;44.686;10.842;2023-08-06T10:09:30;2.38;;;0.95;;
23290;SDS011;11814;44.686;10.842;2023-08-06T10:11:56;3.85;;;0.98;;
23290;SDS011;11814;44.686;10.842;2023-08-06T10:14:25;4.07;;;0.88;;
23290;SDS011;11814;44.686;10.842;2023-08-06T10:16:56;1.58;;;0.70;;
23290;SDS011;11814;44.686;10.842;2023-08-06T10:19:23;1.77;;;0.77;;
23290;SDS011;11814;44.686;10.842;2023-08-06T10:22:12;2.58;;;0.80;;
23290;SDS011;11814;44.686;10.842;2023-08-06T10:28:08;2.78;;;0.73;;
23290;SDS011;11814;44.686;10.842;2023-08-06T10:33:02;1.80;;;0.38;;
23290;SDS011;11814;44.686;10.842;2023-08-06T10:38:17;2.03;;;0.50;;
23290;SDS011;11814;44.686;10.842;2023-08-06T10:43:37;1.60;;;0.57;;
23290;SDS011;11814;44.686;10.842;2023-08-06T10:46:21;2.88;;;0.70;;
23290;SDS011;11814;44.686;10.842;2023-08-06T10:48:51;1.95;;;0.45;;
23290;SDS011;11814;44.686;10.842;2023-08-06T10:51:22;1.25;;;0.50;;
23290;SDS011;11814;44.686;10.842;2023-08-06T10:53:51;1.65;;;0.40;;
23290;SDS011;11814;44.686;10.842;2023-08-06T10:56:23;1.17;;;0.35;;
23290;SDS011;11814;44.686;10.842;2023-08-06T10:59:01;1.00;;;0.30;;
23290;SDS011;11814;44.686;10.842;2023-08-06T11:01:28;2.72;;;0.40;;
23290;SDS011;11814;44.686;10.842;2023-08-06T11:04:05;3.10;;;0.47;;
23290;SDS011;11814;44.686;10.842;2023-08-06T11:06:31;0.70;;;0.40;;
23290;SDS011;11814;44.686;10.842;2023-08-06T11:08:58;0.63;;;0.40;;
23290;SDS011;11814;44.686;10.842;2023-08-06T11:11:24;1.27;;;0.43;;
23290;SDS011;11814;44.686;10.842;2023-08-06T11:13:54;1.05;;;0.40;;
23290;SDS011;11814;44.686;10.842;2023-08-06T11:16:21;1.58;;;0.50;;
23290;SDS011;11814;44.686;10.842;2023-08-06T11:18:49;1.00;;;0.60;;
23290;SDS011;11814;44.686;10.842;2023-08-06T11:21:22;3.65;;;0.60;;
23290;SDS011;11814;44.686;10.842;2023-08-06T11:23:49;4.80;;;0.55;;
23290;SDS011;11814;44.686;10.842;2023-08-06T11:26:20;1.10;;;0.60;;
23290;SDS011;11814;44.686;10.842;2023-08-06T11:28:51;8.23;;;0.57;;
23290;SDS011;11814;44.686;10.842;2023-08-06T11:31:25;1.65;;;0.55;;
23290;SDS011;11814;44.686;10.842;2023-08-06T11:34:00;1.95;;;0.40;;
23290;SDS011;11814;44.686;10.842;2023-08-06T11:36:32;3.60;;;0.57;;
23290;SDS011;11814;44.686;10.842;2023-08-06T11:38:59;0.70;;;0.40;;
23290;SDS011;11814;44.686;10.842;2023-08-06T11:41:27;0.60;;;0.40;;
23290;SDS011;11814;44.686;10.842;2023-08-06T11:43:57;1.10;;;0.30;;
23290;SDS011;11814;44.686;10.842;2023-08-06T11:46:24;1.50;;;0.30;;
23290;SDS011;11814;44.686;10.842;2023-08-06T11:48:58;2.20;;;0.60;;
23290;SDS011;11814;44.686;10.842;2023-08-06T11:51:27;1.45;;;0.50;;
23290;SDS011;11814;44.686;10.842;2023-08-06T11:53:58;2.97;;;0.30;;
23290;SDS011;11814;44.686;10.842;2023-08-06T11:56:24;2.35;;;0.45;;
23290;SDS011;11814;44.686;10.842;2023-08-06T11:58:56;2.13;;;0.45;;
23290;SDS011;11814;44.686;10.842;2023-08-06T12:01:25;2.55;;;0.68;;
23290;SDS011;11814;44.686;10.842;2023-08-06T12:03:51;1.30;;;0.35;;
23290;SDS011;11814;44.686;10.842;2023-08-06T12:06:20;0.95;;;0.60;;
23290;SDS011;11814;44.686;10.842;2023-08-06T12:08:49;0.75;;;0.40;;
23290;SDS011;11814;44.686;10.842;2023-08-06T12:11:26;2.17;;;0.40;;
23290;SDS011;11814;44.686;10.842;2023-08-06T12:13:52;1.95;;;0.30;;
23290;SDS011;11814;44.686;10.842;2023-08-06T12:16:24;1.02;;;0.50;;
23290;SDS011;11814;44.686;10.842;2023-08-06T12:18:50;1.52;;;0.30;;
23290;SDS011;11814;44.686;10.842;2023-08-06T12:21:16;0.98;;;0.40;;
23290;SDS011;11814;44.686;10.842;2023-08-06T12:23:44;0.93;;;0.40;;
23290;SDS011;11814;44.686;10.842;2023-08-06T12:26:19;0.80;;;0.60;;
23290;SDS011;11814;44.686;10.842;2023-08-06T12:28:48;1.45;;;0.50;;
23290;SDS011;11814;44.686;10.842;2023-08-06T12:31:14;0.70;;;0.50;;
23290;SDS011;11814;44.686;10.842;2023-08-06T12:33:49;1.30;;;0.50;;
23290;SDS011;11814;44.686;10.842;2023-08-06T12:36:19;2.97;;;0.40;;
23290;SDS011;11814;44.686;10.842;2023-08-06T12:38:45;1.15;;;0.50;;
23290;SDS011;11814;44.686;10.842;2023-08-06T12:41:14;2.40;;;0.47;;
23290;SDS011;11814;44.686;10.842;2023-08-06T12:43:42;1.05;;;0.47;;
23290;SDS011;11814;44.686;10.842;2023-08-06T12:46:08;0.88;;;0.50;;
23290;SDS011;11814;44.686;10.842;2023-08-06T12:48:33;2.92;;;0.60;;
23290;SDS011;11814;44.686;10.842;2023-08-06T12:50:59;0.73;;;0.40;;
23290;SDS011;11814;44.686;10.842;2023-08-06T12:53:27;4.30;;;0.63;;
23290;SDS011;11814;44.686;10.842;2023-08-06T12:55:53;2.80;;;0.50;;
23290;SDS011;11814;44.686;10.842;2023-08-06T12:58:21;2.13;;;0.57;;
23290;SDS011;11814;44.686;10.842;2023-08-06T13:00:47;1.20;;;0.50;;
23290;SDS011;11814;44.686;10.842;2023-08-06T13:03:18;1.40;;;0.40;;
23290;SDS011;11814;44.686;10.842;2023-08-06T13:05:47;1.13;;;0.50;;
23290;SDS011;11814;44.686;10.842;2023-08-06T13:08:16;3.33;;;0.30;;
23290;SDS011;11814;44.686;10.842;2023-08-06T13:10:42;1.15;;;0.60;;
23290;SDS011;11814;44.686;10.842;2023-08-06T13:13:11;2.45;;;0.47;;
23290;SDS011;11814;44.686;10.842;2023-08-06T13:15:36;1.50;;;0.50;;
23290;SDS011;11814;44.686;10.842;2023-08-06T13:18:04;2.17;;;0.50;;
23290;SDS011;11814;44.686;10.842;2023-08-06T13:20:33;1.25;;;0.52;;
23290;SDS011;11814;44.686;10.842;2023-08-06T13:22:59;1.70;;;0.50;;
23290;SDS011;11814;44.686;10.842;2023-08-06T13:25:26;1.17;;;0.60;;
23290;SDS011;11814;44.686;10.842;2023-08-06T13:27:53;2.80;;;0.50;;
23290;SDS011;11814;44.686;10.842;2023-08-06T13:30:28;2.03;;;0.70;;
23290;SDS011;11814;44.686;10.842;2023-08-06T13:33:04;4.28;;;0.45;;
23290;SDS011;11814;44.686;10.842;2023-08-06T13:35:31;4.22;;;0.40;;
23290;SDS011;11814;44.686;10.842;2023-08-06T13:37:57;1.52;;;0.40;;
23290;SDS011;11814;44.686;10.842;2023-08-06T13:40:22;1.42;;;0.43;;
23290;SDS011;11814;44.686;10.842;2023-08-06T13:42:48;0.82;;;0.50;;
23290;SDS011;11814;44.686;10.842;2023-08-06T13:45:14;1.27;;;0.60;;
23290;SDS011;11814;44.686;10.842;2023-08-06T13:47:39;1.60;;;0.70;;
23290;SDS011;11814;44.686;10.842;2023-08-06T13:50:15;0.80;;;0.47;;
23290;SDS011;11814;44.686;10.842;2023-08-06T13:52:41;0.93;;;0.38;;
23290;SDS011;11814;44.686;10.842;2023-08-06T13:55:09;0.88;;;0.40;;
23290;SDS011;11814;44.686;10.842;2023-08-06T13:57:35;1.30;;;0.60;;
23290;SDS011;11814;44.686;10.842;2023-08-06T14:00:06;0.70;;;0.30;;
23290;SDS011;11814;44.686;10.842;2023-08-06T14:02:32;2.85;;;0.60;;
23290;SDS011;11814;44.686;10.842;2023-08-06T14:05:03;0.52;;;0.40;;
23290;SDS011;11814;44.686;10.842;2023-08-06T14:07:53;1.15;;;0.50;;
23290;SDS011;11814;44.686;10.842;2023-08-06T14:10:36;1.20;;;0.50;;
23290;SDS011;11814;44.686;10.842;2023-08-06T14:13:08;1.05;;;0.50;;
23290;SDS011;11814;44.686;10.842;2023-08-06T14:15:36;2.55;;;0.60;;
23290;SDS011;11814;44.686;10.842;2023-08-06T14:18:05;1.30;;;0.40;;
23290;SDS011;11814;44.686;10.842;2023-08-06T14:20:37;1.95;;;0.55;;
23290;SDS011;11814;44.686;10.842;2023-08-06T14:23:03;3.70;;;0.40;;
23290;SDS011;11814;44.686;10.842;2023-08-06T14:25:31;2.22;;;0.52;;
23290;SDS011;11814;44.686;10.842;2023-08-06T14:27:57;2.85;;;0.77;;
23290;SDS011;11814;44.686;10.842;2023-08-06T14:30:22;1.27;;;0.50;;
23290;SDS011;11814;44.686;10.842;2023-08-06T14:32:54;2.58;;;0.70;;
23290;SDS011;11814;44.686;10.842;2023-08-06T14:35:31;1.40;;;0.55;;
23290;SDS011;11814;44.686;10.842;2023-08-06T14:38:00;1.20;;;0.60;;
23290;SDS011;11814;44.686;10.842;2023-08-06T14:40:31;3.65;;;0.45;;
23290;SDS011;11814;44.686;10.842;2023-08-06T14:43:03;3.10;;;0.70;;
23290;SDS011;11814;44.686;10.842;2023-08-06T14:45:44;2.80;;;0.60;;
23290;SDS011;11814;44.686;10.842;2023-08-06T14:48:10;5.78;;;0.70;;
23290;SDS011;11814;44.686;10.842;2023-08-06T14:50:35;3.30;;;0.63;;
23290;SDS011;11814;44.686;10.842;2023-08-06T14:53:07;3.08;;;0.63;;
23290;SDS011;11814;44.686;10.842;2023-08-06T14:55:45;2.55;;;0.40;;
23290;SDS011;11814;44.686;10.842;2023-08-06T14:58:11;1.30;;;0.50;;
23290;SDS011;11814;44.686;10.842;2023-08-06T15:00:39;1.23;;;0.38;;